Meteo Giornale » Osservazioni meteo Vanuatu » Bauerfield Efate
ore: 06:00 - Osservazioni Meteo Bauerfield Efate
Lat. 17° 42' S Lon. 168° 18' E Alt. 20 metri s.l.m.
17 °C
Molto Nuvoloso
Temp. 24 Ore
16 °C
25 °C
Nord
5.5 Km/h
Dew point 17 °C
Umidità 100 %
Visibilità 0 Km
Il sole sorge alle ore 05:54
Il sole tramonta alle ore 17:39
| Data e Ora | Cielo e Fenomeni | T °C | DP °C | Um. % | Pres. hPa | Vis. km | Vento km/h | |
|---|---|---|---|---|---|---|---|---|
| Oggi h: 06:00 | Molto Nuvoloso | 17 | 17 | 100 | 1020 | 0 | N 5.5 | |
| Oggi h: 05:00 | Nuvoloso | 16 | 14 | 87 | 1019 | 10 | N 3.7 | |
| Oggi h: 04:00 | Nuvoloso | 16 | 15 | 93 | 1019 | 10 | N 3.7 | |
| Oggi h: 03:00 | Poco Nuvoloso | 16 | 15 | 93 | 1019 | 10 | N 3.7 | |
| Oggi h: 02:00 | Poco Nuvoloso | 17 | 15 | 88 | 1019 | 10 | N 3.7 | |
| Oggi h: 01:00 | Nuvoloso | 17 | 15 | 88 | 1020 | 10 | N 3.7 | |
| Ieri h: 23:00 | Nuvoloso | 17 | 15 | 88 | 1020 | 10 | N 3.7 | |
| Ieri h: 22:00 | Nuvoloso | 18 | 16 | 88 | 1020 | 10 | N 5.5 | |
| Ieri h: 21:00 | Poco Nuvoloso | 19 | 16 | 82 | 1020 | 10 | N 3.7 | |
| Ieri h: 20:00 | Poco Nuvoloso | 19 | 16 | 82 | 1019 | 10 | N 5.5 | |
| Ieri h: 19:00 | Poco Nuvoloso | 20 | 16 | 77 | 1019 | 10 | N 5.5 | |
| Ieri h: 18:00 | Nuvoloso | 21 | 16 | 73 | 1018 | 10 | E/SE 11.1 | |
| Ieri h: 17:00 | Molto Nuvoloso | 22 | 16 | 68 | 1018 | 10 | E/SE 18.5 | |
| Ieri h: 16:00 | Nuvoloso | 24 | 16 | 60 | 1017 | 10 | SE 20.3 | |
| Ieri h: 15:00 | Poco Nuvoloso | 25 | 16 | 57 | 1017 | 10 | E/SE 22.2 | |
| Ieri h: 14:00 | Poco Nuvoloso | 25 | 15 | 53 | 1017 | 10 | SE 20.3 | |
| Ieri h: 13:00 | Nuvoloso | 24 | 14 | 53 | 1018 | 10 | SE 18.5 | |
| Ieri h: 12:00 | Nuvoloso | 25 | 16 | 57 | 1018 | 10 | SE 16.7 | |
| Ieri h: 11:00 | Nuvoloso | 24 | 15 | 57 | 1019 | 10 | SE 18.5 | |
| Ieri h: 10:00 | Nuvoloso | 24 | 15 | 57 | 1020 | 10 | SE 16.7 | |
| Ieri h: 09:00 | Nuvoloso | 24 | 16 | 60 | 1019 | 10 | SE 18.5 | |
| Ieri h: 08:00 | Poco Nuvoloso | 21 | 17 | 77 | 1019 | 10 | E/SE 7.4 | |
| Ieri h: 07:00 | Molto Nuvoloso | 17 | 16 | 93 | 1019 | 10 | N 5.5 | |



